Time;durP1;ratioP1;P1;durP2;ratioP2;P2;SDS_P1;SDS_P2;PMS_P1;PMS_P2;Temp;Humidity;BMP_temperature;BMP_pressure;BME280_temperature;BME280_humidity;BME280_pressure;Samples;Min_cycle;Max_cycle;Signal;HPM_P1;HPM_P2
2021/11/12 00:14:36;;;;;;;47.33;20.10;;;;;;;;;;4939473;29;20540;-73
2021/11/12 00:17:41;;;;;;;37.27;19.17;;;;;;;;;;4952486;29;20936;-72
2021/11/12 00:20:46;;;;;;;25.13;18.53;;;;;;;;;;4948446;29;20638;-72
2021/11/12 00:23:50;;;;;;;33.93;18.87;;;;;;;;;;4958485;29;20550;-72
2021/11/12 00:26:54;;;;;;;28.97;19.03;;;;;;;;;;4957929;29;20599;-73
2021/11/12 00:36:43;;;;;;;38.60;19.50;;;;;;;;;;4934155;29;20624;-72
2021/11/12 00:39:59;;;;;;;34.37;19.90;;;;;;;;;;4952823;29;20631;-73
2021/11/12 00:43:10;;;;;;;32.97;21.60;;;;;;;;;;4946312;29;20559;-72
2021/11/12 00:46:26;;;;;;;29.37;20.13;;;;;;;;;;4957769;29;20548;-72
2021/11/12 00:49:33;;;;;;;32.37;21.90;;;;;;;;;;4934568;29;20623;-72
2021/11/12 00:55:45;;;;;;;33.77;19.67;;;;;;;;;;4942914;29;20633;-72
2021/11/12 00:58:50;;;;;;;35.37;21.47;;;;;;;;;;4957293;29;20623;-72
2021/11/12 01:01:54;;;;;;;39.73;22.17;;;;;;;;;;4957260;29;20671;-72
2021/11/12 01:04:58;;;;;;;37.40;20.63;;;;;;;;;;4938369;29;20548;-72
2021/11/12 01:08:04;;;;;;;30.60;20.70;;;;;;;;;;4937436;29;20540;-73
2021/11/12 01:11:10;;;;;;;37.33;21.30;;;;;;;;;;4955695;29;20638;-73
2021/11/12 01:14:18;;;;;;;34.67;21.10;;;;;;;;;;4957518;29;20543;-73
2021/11/12 01:17:23;;;;;;;44.30;21.03;;;;;;;;;;4957204;29;20591;-73
2021/11/12 01:20:27;;;;;;;30.63;19.67;;;;;;;;;;4945061;29;21225;-73
2021/11/12 01:23:33;;;;;;;45.43;21.37;;;;;;;;;;4957413;29;20547;-73
2021/11/12 01:26:38;;;;;;;34.73;19.97;;;;;;;;;;4944993;29;20554;-73
2021/11/12 01:29:42;;;;;;;32.57;19.83;;;;;;;;;;4956734;29;20628;-73
2021/11/12 01:32:48;;;;;;;33.33;20.20;;;;;;;;;;4945220;29;20630;-73
2021/11/12 01:35:54;;;;;;;35.27;20.50;;;;;;;;;;4956960;29;20563;-73
2021/11/12 01:39:04;;;;;;;39.43;20.40;;;;;;;;;;4956563;29;20658;-73
2021/11/12 01:42:08;;;;;;;49.23;21.17;;;;;;;;;;4937729;29;21030;-73
2021/11/12 01:45:13;;;;;;;33.37;19.63;;;;;;;;;;4938812;29;20548;-73
2021/11/12 01:48:27;;;;;;;28.87;19.20;;;;;;;;;;4955742;29;20626;-73
2021/11/12 01:51:46;;;;;;;39.20;20.50;;;;;;;;;;4956474;29;20646;-73
2021/11/12 01:58:26;;;;;;;33.03;19.57;;;;;;;;;;4937876;29;20545;-73
2021/11/12 02:01:39;;;;;;;43.70;20.83;;;;;;;;;;4955921;29;20647;-73
2021/11/12 02:04:44;;;;;;;30.33;20.40;;;;;;;;;;4956364;29;20606;-73
2021/11/12 02:07:48;;;;;;;30.57;19.53;;;;;;;;;;4956843;29;20543;-73
2021/11/12 02:10:52;;;;;;;33.53;19.27;;;;;;;;;;4955931;29;20654;-73
2021/11/12 02:13:58;;;;;;;42.07;19.80;;;;;;;;;;4955901;29;20635;-73
2021/11/12 02:17:11;;;;;;;40.73;20.30;;;;;;;;;;4955315;29;21149;-73
2021/11/12 02:20:25;;;;;;;37.03;19.70;;;;;;;;;;4955741;29;20634;-73
2021/11/12 02:23:36;;;;;;;39.30;19.53;;;;;;;;;;4956305;29;21225;-73
2021/11/12 02:26:45;;;;;;;33.70;19.83;;;;;;;;;;4944039;29;20587;-73
2021/11/12 02:29:53;;;;;;;30.53;17.40;;;;;;;;;;4932910;29;20971;-73
2021/11/12 02:33:00;;;;;;;29.73;20.00;;;;;;;;;;4955655;29;20636;-73
2021/11/12 02:36:08;;;;;;;31.83;17.97;;;;;;;;;;4955450;29;20595;-73
2021/11/12 02:39:14;;;;;;;36.33;18.40;;;;;;;;;;4955185;29;20951;-73
2021/11/12 02:42:20;;;;;;;30.73;18.43;;;;;;;;;;4943961;29;20994;-73
2021/11/12 02:45:24;;;;;;;30.13;18.13;;;;;;;;;;4955345;29;20587;-73
2021/11/12 02:48:32;;;;;;;28.07;18.13;;;;;;;;;;4955858;29;20693;-73
2021/11/12 02:51:36;;;;;;;37.53;17.47;;;;;;;;;;4943747;29;20627;-73
2021/11/12 02:54:40;;;;;;;26.60;16.43;;;;;;;;;;4943316;29;20631;-73
2021/11/12 02:57:44;;;;;;;33.43;17.53;;;;;;;;;;4955015;29;20631;-73
2021/11/12 03:00:49;;;;;;;23.33;16.20;;;;;;;;;;4954652;29;20654;-73
2021/11/12 03:03:54;;;;;;;29.03;15.33;;;;;;;;;;4943421;29;20602;-73
2021/11/12 03:06:59;;;;;;;27.50;15.63;;;;;;;;;;4955870;29;21094;-73
2021/11/12 03:10:04;;;;;;;27.30;15.23;;;;;;;;;;4954947;29;20947;-73
2021/11/12 03:13:08;;;;;;;23.17;15.13;;;;;;;;;;4955030;29;20959;-73
2021/11/12 03:16:16;;;;;;;21.60;15.07;;;;;;;;;;4954955;29;21160;-73
2021/11/12 03:19:25;;;;;;;25.53;16.50;;;;;;;;;;4954622;29;20607;-73
2021/11/12 03:22:34;;;;;;;27.93;15.90;;;;;;;;;;4954869;29;20638;-73
2021/11/12 03:25:45;;;;;;;37.77;16.90;;;;;;;;;;4955354;29;20556;-73
2021/11/12 04:03:00;;;;;;;36.23;17.07;;;;;;;;;;4915446;29;20655;-72
2021/11/12 04:20:05;;;;;;;32.97;15.80;;;;;;;;;;4915744;29;20601;-73
2021/11/12 05:51:22;;;;;;;30.40;16.70;;;;;;;;;;4918471;29;21077;-73
2021/11/12 05:57:12;;;;;;;30.33;17.37;;;;;;;;;;4918993;29;20545;-73
2021/11/12 06:00:18;;;;;;;37.47;17.87;;;;;;;;;;4918312;29;20671;-73
2021/11/12 06:03:22;;;;;;;28.23;16.43;;;;;;;;;;4917457;29;21154;-74
2021/11/12 06:06:26;;;;;;;34.30;17.00;;;;;;;;;;4918346;29;20553;-74
2021/11/12 06:09:31;;;;;;;29.33;17.27;;;;;;;;;;4918612;29;20550;-73
2021/11/12 06:12:35;;;;;;;39.80;18.23;;;;;;;;;;4917849;29;20653;-72
2021/11/12 06:15:39;;;;;;;28.53;18.63;;;;;;;;;;4918211;29;20632;-73
2021/11/12 06:18:43;;;;;;;36.53;18.27;;;;;;;;;;4918237;29;20604;-73
2021/11/12 06:21:48;;;;;;;37.17;18.27;;;;;;;;;;4906028;29;20672;-73
2021/11/12 06:24:53;;;;;;;34.20;17.53;;;;;;;;;;4918059;29;20554;-73
2021/11/12 06:27:56;;;;;;;32.30;17.53;;;;;;;;;;4917871;29;20545;-74
2021/11/12 06:31:00;;;;;;;30.60;17.37;;;;;;;;;;4917937;29;20640;-74
2021/11/12 06:34:05;;;;;;;33.13;18.07;;;;;;;;;;4898955;29;20558;-74
2021/11/12 06:37:09;;;;;;;33.17;17.20;;;;;;;;;;4898313;29;20538;-74
2021/11/12 06:40:20;;;;;;;42.50;22.33;;;;;;;;;;4898018;29;20618;-73
2021/11/12 06:43:37;;;;;;;48.23;25.87;;;;;;;;;;4897641;29;20586;-73
2021/11/12 06:50:15;;;;;;;38.57;21.97;;;;;;;;;;4917306;29;21107;-74
2021/11/12 06:53:20;;;;;;;37.20;19.03;;;;;;;;;;4916397;29;20609;-73
2021/11/12 06:56:26;;;;;;;38.47;20.13;;;;;;;;;;4917423;29;20942;-74
2021/11/12 06:59:29;;;;;;;50.43;20.53;;;;;;;;;;4917330;29;20605;-74
2021/11/12 07:02:33;;;;;;;42.13;20.60;;;;;;;;;;4916900;29;20649;-73
2021/11/12 07:05:38;;;;;;;34.63;19.90;;;;;;;;;;4916943;29;21171;-73
2021/11/12 07:08:42;;;;;;;43.90;19.93;;;;;;;;;;4905772;29;21087;-74
2021/11/12 07:11:46;;;;;;;28.37;17.40;;;;;;;;;;4904955;29;20648;-73
2021/11/12 07:14:50;;;;;;;32.03;18.40;;;;;;;;;;4917388;29;20545;-74
2021/11/12 07:17:54;;;;;;;29.87;17.70;;;;;;;;;;4916563;29;20557;-74
2021/11/12 07:20:58;;;;;;;34.57;18.73;;;;;;;;;;4917244;29;20672;-74
2021/11/12 07:24:02;;;;;;;35.43;18.60;;;;;;;;;;4915599;29;20589;-71
2021/11/12 07:27:07;;;;;;;29.80;17.90;;;;;;;;;;4916655;29;20593;-71
2021/11/12 07:30:15;;;;;;;34.13;18.23;;;;;;;;;;4916838;29;21154;-72
2021/11/12 07:33:19;;;;;;;36.17;19.50;;;;;;;;;;4916660;29;21178;-71
2021/11/12 07:36:24;;;;;;;34.00;18.70;;;;;;;;;;4905098;29;20597;-72
2021/11/12 07:42:54;;;;;;;35.87;18.60;;;;;;;;;;4889205;29;20582;-71
2021/11/12 07:46:13;;;;;;;35.30;18.57;;;;;;;;;;4898202;29;20547;-72
2021/11/12 07:49:18;;;;;;;33.67;18.17;;;;;;;;;;4904987;29;20593;-71
2021/11/12 07:52:27;;;;;;;33.80;18.37;;;;;;;;;;4904796;29;21237;-72
2021/11/12 07:55:31;;;;;;;29.63;18.30;;;;;;;;;;4916796;29;20979;-72
2021/11/12 07:58:35;;;;;;;36.97;18.60;;;;;;;;;;4916421;29;20768;-71
2021/11/12 08:01:40;;;;;;;33.03;17.80;;;;;;;;;;4917766;29;21091;-71
2021/11/12 08:04:47;;;;;;;29.20;17.53;;;;;;;;;;4920715;29;20554;-72
2021/11/12 08:07:54;;;;;;;30.47;18.13;;;;;;;;;;4908607;29;20542;-71
2021/11/12 08:11:09;;;;;;;29.60;17.53;;;;;;;;;;4920201;29;20656;-71
2021/11/12 08:14:25;;;;;;;38.03;18.37;;;;;;;;;;4920530;29;20553;-72
2021/11/12 08:17:41;;;;;;;46.07;18.50;;;;;;;;;;4919172;29;20605;-71
2021/11/12 08:21:04;;;;;;;31.13;19.30;;;;;;;;;;4911749;29;20661;-72
2021/11/12 08:33:54;;;;;;;29.80;19.17;;;;;;;;;;4919144;29;20185;-72
2021/11/12 08:40:44;;;;;;;32.63;18.03;;;;;;;;;;4887189;29;20209;-72
2021/11/12 08:43:58;;;;;;;33.53;19.00;;;;;;;;;;4918901;29;20593;-72
2021/11/12 08:47:23;;;;;;;37.10;19.07;;;;;;;;;;4903259;29;20586;-72
2021/11/12 08:50:27;;;;;;;33.40;19.13;;;;;;;;;;4918794;29;20656;-72
2021/11/12 08:53:31;;;;;;;30.93;19.50;;;;;;;;;;4919047;29;20541;-72
2021/11/12 08:56:37;;;;;;;32.67;20.30;;;;;;;;;;4907812;29;20213;-72
2021/11/12 08:59:43;;;;;;;33.17;20.73;;;;;;;;;;4919374;29;20664;-72
2021/11/12 09:02:49;;;;;;;33.00;20.13;;;;;;;;;;4906696;29;20679;-72
2021/11/12 09:05:53;;;;;;;43.43;22.43;;;;;;;;;;4901040;29;20539;-72
2021/11/12 09:08:57;;;;;;;38.47;21.70;;;;;;;;;;4900454;29;20185;-72
2021/11/12 09:12:01;;;;;;;37.80;21.43;;;;;;;;;;4900400;29;20213;-72
2021/11/12 09:15:13;;;;;;;41.03;21.30;;;;;;;;;;4900623;29;20186;-72
2021/11/12 09:18:21;;;;;;;29.77;19.17;;;;;;;;;;4899750;29;20190;-72
2021/11/12 09:21:26;;;;;;;29.83;17.63;;;;;;;;;;4888674;29;20233;-72
2021/11/12 09:24:30;;;;;;;32.93;18.87;;;;;;;;;;4900196;29;20185;-72
2021/11/12 09:27:35;;;;;;;29.93;18.00;;;;;;;;;;4900380;29;20193;-72
2021/11/12 09:30:39;;;;;;;38.87;24.13;;;;;;;;;;4900263;29;20229;-72
2021/11/12 09:33:44;;;;;;;59.40;31.00;;;;;;;;;;4900268;29;20550;-72
2021/11/12 09:36:48;;;;;;;59.93;30.83;;;;;;;;;;4910991;29;20193;-71
2021/11/12 09:39:54;;;;;;;42.17;23.53;;;;;;;;;;4916972;29;20192;-71
2021/11/12 09:42:58;;;;;;;32.33;19.60;;;;;;;;;;4907301;29;20568;-72
2021/11/12 09:46:04;;;;;;;56.00;27.50;;;;;;;;;;4918351;29;20201;-72
2021/11/12 09:49:08;;;;;;;32.83;19.77;;;;;;;;;;4919095;29;20181;-72
2021/11/12 09:52:13;;;;;;;31.63;18.80;;;;;;;;;;4919077;29;20217;-72
2021/11/12 09:55:19;;;;;;;33.30;20.00;;;;;;;;;;4917939;29;20185;-72
2021/11/12 09:58:24;;;;;;;28.97;17.47;;;;;;;;;;4907255;29;20185;-72
2021/11/12 10:01:35;;;;;;;33.97;18.77;;;;;;;;;;4959435;23;20714;-89
2021/11/12 10:04:39;;;;;;;33.83;20.33;;;;;;;;;;4937370;29;20192;-89
2021/11/12 10:07:43;;;;;;;45.63;23.20;;;;;;;;;;4932495;29;20191;-90
2021/11/12 10:10:50;;;;;;;44.43;22.60;;;;;;;;;;4904423;29;20216;-90
2021/11/12 10:14:16;;;;;;;100.27;46.20;;;;;;;;;;4904707;29;20180;-90
2021/11/12 10:17:21;;;;;;;81.30;41.00;;;;;;;;;;4904424;29;20188;-90
2021/11/12 10:20:24;;;;;;;81.20;41.07;;;;;;;;;;4920984;29;20211;-90
2021/11/12 10:23:32;;;;;;;53.63;29.57;;;;;;;;;;4922769;28;20176;-90
2021/11/12 10:26:37;;;;;;;46.03;27.30;;;;;;;;;;4933813;29;20184;-89
2021/11/12 10:29:53;;;;;;;37.00;21.97;;;;;;;;;;4923354;29;20184;-89
2021/11/12 10:32:58;;;;;;;39.03;23.17;;;;;;;;;;4922984;29;20180;-89
2021/11/12 10:36:02;;;;;;;39.67;23.50;;;;;;;;;;4945197;29;20208;-90
2021/11/12 10:39:06;;;;;;;43.27;24.80;;;;;;;;;;4922637;29;20203;-89
2021/11/12 10:42:17;;;;;;;44.80;23.37;;;;;;;;;;4923326;29;20207;-89
2021/11/12 10:45:24;;;;;;;52.13;31.43;;;;;;;;;;4922796;29;20207;-90
2021/11/12 10:48:29;;;;;;;43.37;23.97;;;;;;;;;;4893554;29;20200;-89
2021/11/12 10:51:49;;;;;;;35.60;22.03;;;;;;;;;;4942140;29;20215;-89
2021/11/12 10:55:08;;;;;;;42.87;23.10;;;;;;;;;;4944518;29;20183;-89
2021/11/12 10:58:13;;;;;;;38.97;21.63;;;;;;;;;;4908633;29;20188;-90
2021/11/12 11:01:34;;;;;;;39.97;24.10;;;;;;;;;;4921513;29;20222;-89
2021/11/12 11:04:41;;;;;;;32.53;20.60;;;;;;;;;;4924183;29;20659;-89
2021/11/12 11:07:51;;;;;;;34.33;20.97;;;;;;;;;;4924394;29;20191;-91
2021/11/12 11:11:02;;;;;;;33.33;20.47;;;;;;;;;;4905697;29;20225;-90
2021/11/12 11:14:26;;;;;;;32.47;19.97;;;;;;;;;;4906047;29;20514;-89
2021/11/12 11:17:30;;;;;;;31.17;19.30;;;;;;;;;;4902788;29;20196;-88
2021/11/12 11:20:35;;;;;;;30.43;20.13;;;;;;;;;;4924656;29;20231;-89
2021/11/12 11:23:45;;;;;;;33.87;20.53;;;;;;;;;;4903315;29;20192;-89
2021/11/12 11:26:49;;;;;;;31.60;19.00;;;;;;;;;;4902693;29;20192;-89
2021/11/12 11:29:53;;;;;;;34.53;20.20;;;;;;;;;;4895367;29;20193;-88
2021/11/12 11:32:59;;;;;;;31.27;20.77;;;;;;;;;;4913554;29;20191;-89
2021/11/12 11:36:04;;;;;;;33.00;21.27;;;;;;;;;;4912635;29;20679;-89
2021/11/12 11:39:11;;;;;;;33.83;20.77;;;;;;;;;;4912847;29;20192;-89
2021/11/12 11:42:16;;;;;;;35.20;21.13;;;;;;;;;;4924188;29;20208;-90
2021/11/12 11:45:20;;;;;;;36.63;21.90;;;;;;;;;;4924667;29;20184;-89
2021/11/12 11:48:25;;;;;;;35.53;20.97;;;;;;;;;;4924501;29;20196;-89
2021/11/12 11:51:33;;;;;;;30.77;19.47;;;;;;;;;;4913413;29;20592;-89
2021/11/12 11:54:46;;;;;;;31.83;19.63;;;;;;;;;;4924667;29;20184;-89
2021/11/12 11:57:50;;;;;;;34.27;20.10;;;;;;;;;;4946434;29;20185;-89
2021/11/12 12:01:10;;;;;;;32.67;20.20;;;;;;;;;;4908304;29;20239;-89
2021/11/12 12:04:14;;;;;;;37.33;21.97;;;;;;;;;;4903188;29;20185;-89
2021/11/12 12:07:21;;;;;;;32.87;20.63;;;;;;;;;;4924681;29;20640;-89
2021/11/12 12:10:27;;;;;;;36.27;21.80;;;;;;;;;;4912245;29;20223;-89
2021/11/12 12:13:32;;;;;;;33.70;20.77;;;;;;;;;;4924275;29;20540;-89
2021/11/12 12:16:38;;;;;;;40.20;22.77;;;;;;;;;;4901564;29;20204;-89
2021/11/12 12:19:56;;;;;;;39.03;21.93;;;;;;;;;;4924011;29;20548;-88
2021/11/12 12:33:23;;;;;;;42.37;24.03;;;;;;;;;;4912934;29;20192;-89
2021/11/12 12:37:01;;;;;;;42.67;24.50;;;;;;;;;;4924765;29;20184;-88
2021/11/12 13:21:45;;;;;;;37.97;22.73;;;;;;;;;;4915631;29;21007;-89
2021/11/12 13:24:53;;;;;;;37.27;23.00;;;;;;;;;;4926415;29;20200;-90
2021/11/12 13:28:22;;;;;;;33.57;21.30;;;;;;;;;;4922831;29;20200;-89
2021/11/12 13:31:27;;;;;;;36.97;21.40;;;;;;;;;;4904619;29;20232;-89
2021/11/12 13:34:43;;;;;;;31.57;19.70;;;;;;;;;;4896768;29;20189;-89
2021/11/12 13:37:52;;;;;;;37.00;20.80;;;;;;;;;;4914982;29;20200;-89
2021/11/12 13:41:02;;;;;;;34.13;20.37;;;;;;;;;;4925972;29;20699;-89
2021/11/12 13:44:13;;;;;;;34.40;19.87;;;;;;;;;;4926466;29;20579;-92
2021/11/12 13:47:21;;;;;;;32.77;19.53;;;;;;;;;;4918690;29;20193;-88
2021/11/12 13:50:26;;;;;;;31.90;19.80;;;;;;;;;;4932687;29;20224;-88
2021/11/12 13:53:32;;;;;;;35.77;21.23;;;;;;;;;;4937570;29;20176;-88
2021/11/12 13:56:36;;;;;;;44.07;23.77;;;;;;;;;;4907383;29;20185;-89
2021/11/12 13:59:58;;;;;;;40.57;23.87;;;;;;;;;;4895988;29;20185;-89
2021/11/12 14:03:09;;;;;;;37.50;22.23;;;;;;;;;;4907477;29;20204;-89
2021/11/12 14:06:14;;;;;;;35.37;20.73;;;;;;;;;;4909655;29;20188;-88
2021/11/12 14:09:20;;;;;;;28.23;17.97;;;;;;;;;;4937729;29;20203;-89
2021/11/12 14:12:25;;;;;;;30.23;18.90;;;;;;;;;;4915335;29;20177;-89
2021/11/12 14:15:35;;;;;;;28.73;18.27;;;;;;;;;;4926300;29;20619;-90
2021/11/12 14:19:08;;;;;;;28.33;17.40;;;;;;;;;;4925851;29;20189;-89
2021/11/12 14:29:16;;;;;;;24.30;15.87;;;;;;;;;;4907017;29;20185;-89
2021/11/12 14:39:05;;;;;;;27.30;17.03;;;;;;;;;;4906813;29;20201;-89
2021/11/12 14:42:32;;;;;;;25.63;15.60;;;;;;;;;;4917477;29;20189;-89
2021/11/12 14:45:46;;;;;;;27.73;17.73;;;;;;;;;;4917541;29;20529;-89
2021/11/12 14:52:24;;;;;;;34.33;16.83;;;;;;;;;;4911783;29;20199;-89
2021/11/12 14:55:28;;;;;;;27.47;17.13;;;;;;;;;;4937209;29;20635;-89
2021/11/12 14:58:34;;;;;;;30.17;17.90;;;;;;;;;;4903745;29;20180;-90
2021/11/12 15:01:39;;;;;;;34.93;18.57;;;;;;;;;;4913769;29;20227;-89
2021/11/12 15:04:44;;;;;;;32.40;19.37;;;;;;;;;;4916197;29;20192;-89
2021/11/12 15:07:55;;;;;;;31.33;17.80;;;;;;;;;;4911698;29;20200;-89
2021/11/12 15:11:02;;;;;;;31.03;18.87;;;;;;;;;;4913706;29;20695;-89
2021/11/12 15:14:09;;;;;;;30.53;18.43;;;;;;;;;;4903087;29;20544;-89
2021/11/12 15:17:15;;;;;;;32.90;18.67;;;;;;;;;;4914099;29;20176;-88
2021/11/12 15:20:20;;;;;;;34.37;18.87;;;;;;;;;;4917388;29;20220;-89
2021/11/12 15:23:36;;;;;;;30.53;17.63;;;;;;;;;;4903165;29;20227;-89
2021/11/12 15:26:53;;;;;;;32.60;18.63;;;;;;;;;;4913779;29;20193;-89
2021/11/12 15:30:06;;;;;;;37.47;20.13;;;;;;;;;;4905837;29;20537;-89
2021/11/12 15:33:15;;;;;;;32.17;19.93;;;;;;;;;;4905884;29;20181;-89
2021/11/12 15:36:19;;;;;;;34.90;20.60;;;;;;;;;;4916947;29;20196;-89
2021/11/12 15:39:54;;;;;;;36.63;20.43;;;;;;;;;;4895804;29;20539;-89
2021/11/12 15:49:07;;;;;;;36.83;21.13;;;;;;;;;;4924550;29;20196;-91
2021/11/12 15:52:18;;;;;;;35.07;20.53;;;;;;;;;;4895971;29;20201;-90
2021/11/12 15:58:42;;;;;;;35.00;20.33;;;;;;;;;;4903081;29;20188;-91
2021/11/12 16:08:46;;;;;;;38.67;19.73;;;;;;;;;;4912130;29;20196;-89
2021/11/12 16:19:01;;;;;;;39.30;21.07;;;;;;;;;;4865055;29;20193;-89
2021/11/12 16:22:28;;;;;;;43.90;21.13;;;;;;;;;;4893649;29;20724;-89
2021/11/12 16:25:29;;;;;;;42.67;20.33;;;;;;;;;;4916601;29;20173;-89
2021/11/12 16:28:50;;;;;;;37.57;19.43;;;;;;;;;;4900445;29;20192;-90
2021/11/12 16:31:54;;;;;;;33.50;18.80;;;;;;;;;;4913398;29;20216;-92
2021/11/12 16:35:00;;;;;;;39.50;19.20;;;;;;;;;;4902925;29;20196;-90
2021/11/12 16:38:11;;;;;;;32.80;18.37;;;;;;;;;;4898931;29;20203;-89
2021/11/12 16:41:22;;;;;;;36.97;18.47;;;;;;;;;;4925375;29;20220;-90
2021/11/12 16:48:16;;;;;;;33.80;18.20;;;;;;;;;;4951801;29;20200;-89
2021/11/12 16:59:04;;;;;;;35.10;17.37;;;;;;;;;;4894740;29;20208;-89
2021/11/12 17:04:57;;;;;;;35.73;17.97;;;;;;;;;;4893920;29;20204;-89
2021/11/12 17:08:10;;;;;;;52.80;18.90;;;;;;;;;;4905838;29;20188;-89
2021/11/12 17:11:22;;;;;;;33.47;17.40;;;;;;;;;;4912452;29;20216;-90
2021/11/12 17:14:33;;;;;;;30.80;16.23;;;;;;;;;;4900986;29;20200;-89
2021/11/12 17:17:54;;;;;;;33.27;16.43;;;;;;;;;;4930026;29;20649;-88
2021/11/12 17:47:50;;;;;;;34.23;15.13;;;;;;;;;;4912422;29;20193;-89
2021/11/12 18:05:29;;;;;;;41.07;18.70;;;;;;;;;;4948209;29;20211;-89
2021/11/12 21:47:53;;;;;;;9.97;7.07;;;;;;;;;;4899125;29;20197;-89
2021/11/12 21:51:00;;;;;;;13.57;8.37;;;;;;;;;;4922612;29;20223;-89
2021/11/12 21:54:04;;;;;;;10.03;6.87;;;;;;;;;;4901896;29;20188;-87
2021/11/12 21:57:08;;;;;;;12.27;7.20;;;;;;;;;;4911762;29;20187;-89
2021/11/12 22:00:13;;;;;;;11.80;7.17;;;;;;;;;;4895371;29;20240;-89
2021/11/12 22:03:18;;;;;;;12.03;6.87;;;;;;;;;;4943640;29;20176;-88
2021/11/12 22:06:23;;;;;;;8.33;6.37;;;;;;;;;;4925428;29;20524;-88
2021/11/12 22:09:29;;;;;;;10.97;7.23;;;;;;;;;;4912117;29;20557;-89
2021/11/12 22:12:35;;;;;;;10.33;6.50;;;;;;;;;;4911995;29;20200;-89
2021/11/12 22:15:40;;;;;;;10.03;6.53;;;;;;;;;;4922945;29;20542;-88
2021/11/12 22:18:45;;;;;;;11.60;6.80;;;;;;;;;;4903416;29;20521;-88
2021/11/12 22:21:50;;;;;;;8.73;6.70;;;;;;;;;;4925029;29;20224;-89
2021/11/12 22:24:54;;;;;;;13.43;7.20;;;;;;;;;;4912056;29;20204;-89
2021/11/12 22:28:07;;;;;;;19.03;7.80;;;;;;;;;;4903962;29;20208;-91
2021/11/12 22:31:11;;;;;;;13.17;7.73;;;;;;;;;;4903086;29;20228;-90
2021/11/12 22:34:15;;;;;;;12.27;7.50;;;;;;;;;;4913832;29;20204;-90
2021/11/12 22:37:20;;;;;;;11.90;7.37;;;;;;;;;;4924690;29;20180;-90
2021/11/12 22:40:25;;;;;;;11.03;7.47;;;;;;;;;;4903256;29;20223;-91
2021/11/12 22:43:30;;;;;;;10.37;6.87;;;;;;;;;;4913595;29;20641;-91
2021/11/12 22:46:34;;;;;;;8.63;5.73;;;;;;;;;;4909440;29;20207;-91
2021/11/12 22:49:39;;;;;;;9.27;5.77;;;;;;;;;;4902021;29;20188;-91
